Time;durP1;ratioP1;P1;durP2;ratioP2;P2;SDS_P1;SDS_P2;PMS_P1;PMS_P2;Temp;Humidity;BMP_temperature;BMP_pressure;BME280_temperature;BME280_humidity;BME280_pressure;Samples;Min_cycle;Max_cycle;Signal;HPM_P1;HPM_P2
2024/02/17 00:00:03;;;;;;;21.13;12.23;;;10.50;99.90;;;;;;5005279;28;20087;-77
2024/02/17 00:02:28;;;;;;;19.80;11.27;;;10.50;99.90;;;;;;4980804;28;20034;-77
2024/02/17 00:04:54;;;;;;;19.27;12.57;;;10.50;99.90;;;;;;4994700;28;20510;-77
2024/02/17 00:07:20;;;;;;;24.75;13.70;;;10.40;99.90;;;;;;5003189;28;20026;-77
2024/02/17 00:09:46;;;;;;;20.38;11.80;;;10.40;99.90;;;;;;5001133;28;20022;-76
2024/02/17 00:12:11;;;;;;;22.23;13.00;;;10.40;99.90;;;;;;4973421;28;20014;-77
2024/02/17 00:14:38;;;;;;;25.90;13.23;;;10.30;99.90;;;;;;4998533;28;20408;-77
2024/02/17 00:17:04;;;;;;;21.02;12.43;;;10.30;99.90;;;;;;4994633;28;20081;-76
2024/02/17 00:19:30;;;;;;;21.25;12.05;;;10.30;99.90;;;;;;5000016;28;20159;-76
2024/02/17 00:21:56;;;;;;;23.40;12.20;;;10.30;99.90;;;;;;5002730;28;20062;-77
2024/02/17 00:24:22;;;;;;;19.83;11.85;;;10.30;99.90;;;;;;4995080;28;20060;-77
2024/02/17 00:26:49;;;;;;;28.20;12.60;;;10.30;99.90;;;;;;4996561;28;20531;-75
2024/02/17 00:29:15;;;;;;;22.20;12.88;;;10.30;99.90;;;;;;5002815;28;20018;-76
2024/02/17 00:31:42;;;;;;;25.08;13.23;;;10.30;99.90;;;;;;4992269;28;20029;-76
2024/02/17 00:34:08;;;;;;;22.08;12.18;;;10.30;99.90;;;;;;4992981;28;20097;-76
2024/02/17 00:36:34;;;;;;;20.85;11.77;;;10.30;99.90;;;;;;4978531;28;20037;-77
2024/02/17 00:39:00;;;;;;;19.38;11.63;;;10.30;99.90;;;;;;4989095;28;20033;-77
2024/02/17 00:41:25;;;;;;;21.50;13.02;;;10.30;99.90;;;;;;5001184;28;20105;-76
2024/02/17 00:43:51;;;;;;;22.27;11.82;;;10.30;99.90;;;;;;5001213;28;20069;-76
2024/02/17 00:46:17;;;;;;;25.75;14.27;;;10.30;99.90;;;;;;5002971;28;20050;-76
2024/02/17 00:48:43;;;;;;;23.88;12.75;;;10.40;99.90;;;;;;4977577;28;20022;-76
2024/02/17 00:51:08;;;;;;;26.40;13.70;;;10.40;99.90;;;;;;4994960;28;20077;-76
2024/02/17 00:53:34;;;;;;;28.02;14.00;;;10.40;99.90;;;;;;5002567;28;20499;-76
2024/02/17 00:56:00;;;;;;;22.23;13.25;;;10.40;99.90;;;;;;4988290;28;20062;-75
2024/02/17 00:58:26;;;;;;;29.35;14.80;;;10.40;99.90;;;;;;5002500;28;20086;-75
2024/02/17 01:00:51;;;;;;;25.67;13.40;;;10.40;99.90;;;;;;4997160;28;20034;-74
2024/02/17 01:03:17;;;;;;;28.40;15.35;;;10.40;99.90;;;;;;5003037;28;20586;-75
2024/02/17 01:05:43;;;;;;;24.50;13.70;;;10.40;99.90;;;;;;4999526;28;20060;-76
2024/02/17 01:08:10;;;;;;;29.58;14.00;;;10.40;99.90;;;;;;4998303;28;20023;-76
2024/02/17 01:10:36;;;;;;;26.98;15.38;;;10.40;99.90;;;;;;5001655;28;20250;-77
2024/02/17 01:13:02;;;;;;;23.73;12.75;;;10.40;99.90;;;;;;4999019;28;20026;-76
2024/02/17 01:15:28;;;;;;;24.63;14.43;;;10.40;99.90;;;;;;4990681;28;20050;-76
2024/02/17 01:17:54;;;;;;;24.95;13.18;;;10.40;99.90;;;;;;4997391;28;20463;-76
2024/02/17 01:20:20;;;;;;;21.42;13.23;;;10.50;99.90;;;;;;4992410;28;20109;-76
2024/02/17 01:22:46;;;;;;;27.45;13.65;;;10.50;99.90;;;;;;4995314;28;20029;-76
2024/02/17 01:25:12;;;;;;;25.60;14.10;;;10.50;99.90;;;;;;4994645;28;20081;-76
2024/02/17 01:27:39;;;;;;;27.85;14.52;;;10.50;99.90;;;;;;5002101;28;20021;-77
2024/02/17 01:30:05;;;;;;;25.17;13.75;;;10.50;99.90;;;;;;4998801;28;20077;-76
2024/02/17 01:32:31;;;;;;;22.88;12.88;;;10.50;99.90;;;;;;4993555;28;20014;-76
2024/02/17 01:34:57;;;;;;;24.95;13.43;;;10.50;99.90;;;;;;4997546;28;20029;-75
2024/02/17 01:37:22;;;;;;;25.65;13.00;;;10.50;99.90;;;;;;4998168;28;20022;-75
2024/02/17 01:39:48;;;;;;;25.45;13.27;;;10.50;99.90;;;;;;5004367;28;20033;-76
2024/02/17 01:42:14;;;;;;;29.83;15.35;;;10.50;99.90;;;;;;5002996;28;20468;-76
2024/02/17 01:44:40;;;;;;;26.90;13.45;;;10.50;99.90;;;;;;4991496;28;20072;-77
2024/02/17 01:47:06;;;;;;;26.00;13.20;;;10.50;99.90;;;;;;4994949;28;20022;-76
2024/02/17 01:49:32;;;;;;;25.25;13.48;;;10.50;99.90;;;;;;4993803;28;20034;-76
2024/02/17 01:52:00;;;;;;;23.27;13.27;;;10.50;99.90;;;;;;5001310;28;20022;-76
2024/02/17 01:54:28;;;;;;;29.20;15.27;;;10.50;99.90;;;;;;4981851;28;20067;-76
2024/02/17 01:56:55;;;;;;;30.92;14.70;;;10.50;99.90;;;;;;4992389;28;20049;-76
2024/02/17 01:59:21;;;;;;;30.02;16.35;;;10.50;99.90;;;;;;4996739;28;20038;-77
2024/02/17 02:01:48;;;;;;;28.92;15.65;;;10.50;99.90;;;;;;5000452;28;20018;-76
2024/02/17 02:04:14;;;;;;;22.60;14.32;;;10.50;99.90;;;;;;4970080;28;20049;-76
2024/02/17 02:06:40;;;;;;;26.73;14.50;;;10.50;99.90;;;;;;4984286;28;20413;-76
2024/02/17 02:09:06;;;;;;;22.83;14.80;;;10.50;99.90;;;;;;4977316;28;20029;-76
2024/02/17 02:11:32;;;;;;;27.75;15.63;;;10.40;99.90;;;;;;4994000;28;20045;-76
2024/02/17 02:14:14;;;;;;;33.25;17.42;;;10.40;99.90;;;;;;4991696;28;20075;-76
2024/02/17 02:16:40;;;;;;;28.67;15.45;;;10.40;99.90;;;;;;4991882;28;20030;-76
2024/02/17 02:19:06;;;;;;;29.27;14.63;;;10.50;99.90;;;;;;4987636;28;20367;-76
2024/02/17 02:21:34;;;;;;;34.10;16.80;;;10.40;99.90;;;;;;4997820;28;20064;-76
2024/02/17 02:24:02;;;;;;;31.48;15.55;;;10.40;99.90;;;;;;4959084;28;20145;-76
2024/02/17 02:26:28;;;;;;;25.73;16.02;;;10.40;99.90;;;;;;4997036;28;20023;-76
2024/02/17 02:28:54;;;;;;;31.17;17.55;;;10.40;99.90;;;;;;5000911;28;20025;-75
2024/02/17 02:31:20;;;;;;;33.25;17.70;;;10.40;99.90;;;;;;4986641;28;20392;-76
2024/02/17 02:33:47;;;;;;;35.13;17.77;;;10.40;99.90;;;;;;5000588;28;20022;-76
2024/02/17 02:36:13;;;;;;;28.17;15.63;;;10.40;99.90;;;;;;4955672;28;20022;-75
2024/02/17 02:38:39;;;;;;;32.70;17.50;;;10.40;99.90;;;;;;4986931;28;20463;-76
2024/02/17 02:41:08;;;;;;;30.35;16.73;;;10.40;99.90;;;;;;5003542;28;20026;-76
2024/02/17 02:43:34;;;;;;;28.55;15.55;;;10.40;99.90;;;;;;4997539;28;20052;-76
2024/02/17 02:46:00;;;;;;;29.13;14.13;;;10.40;99.90;;;;;;4989528;28;20105;-75
2024/02/17 02:48:26;;;;;;;27.90;15.23;;;10.50;99.90;;;;;;4983353;28;20081;-77
2024/02/17 02:50:51;;;;;;;29.27;15.30;;;10.40;99.90;;;;;;4996868;28;20113;-76
2024/02/17 02:53:17;;;;;;;28.90;16.23;;;10.40;99.90;;;;;;4974867;28;20480;-76
2024/02/17 02:55:43;;;;;;;30.10;16.33;;;10.40;99.90;;;;;;4979688;28;20128;-76
2024/02/17 02:58:09;;;;;;;33.08;16.73;;;10.40;99.90;;;;;;4971792;28;20030;-76
2024/02/17 03:00:35;;;;;;;33.20;15.32;;;10.40;99.90;;;;;;4974471;28;20050;-76
2024/02/17 03:03:01;;;;;;;27.75;15.60;;;10.40;99.90;;;;;;4993462;28;20085;-76
2024/02/17 03:05:27;;;;;;;27.10;15.05;;;10.40;99.90;;;;;;4999596;28;20395;-75
2024/02/17 03:07:52;;;;;;;28.42;16.38;;;10.40;99.90;;;;;;4986817;28;20022;-76
2024/02/17 03:10:18;;;;;;;27.73;15.48;;;10.40;99.90;;;;;;4991696;28;20026;-76
2024/02/17 03:12:44;;;;;;;32.70;16.75;;;10.40;99.90;;;;;;4984695;28;20668;-76
2024/02/17 03:15:10;;;;;;;28.23;15.95;;;10.40;99.90;;;;;;4982287;28;20054;-76
2024/02/17 03:17:36;;;;;;;27.38;15.30;;;10.40;99.90;;;;;;4986809;28;20344;-76
2024/02/17 03:20:06;;;;;;;28.35;16.55;;;10.40;99.90;;;;;;4985928;28;20084;-76
2024/02/17 03:22:35;;;;;;;31.27;17.07;;;10.40;99.90;;;;;;4982707;28;20110;-75
2024/02/17 03:25:01;;;;;;;28.45;17.83;;;10.30;99.90;;;;;;4997393;28;20324;-76
2024/02/17 03:27:27;;;;;;;34.00;16.85;;;10.30;99.90;;;;;;4992102;28;20052;-75
2024/02/17 03:29:53;;;;;;;31.25;17.45;;;10.40;99.90;;;;;;4996399;28;20540;-75
2024/02/17 03:32:19;;;;;;;27.88;16.80;;;10.40;99.90;;;;;;5000259;28;20137;-75
2024/02/17 03:34:45;;;;;;;28.60;15.85;;;10.40;99.90;;;;;;4996376;28;20491;-75
2024/02/17 03:37:10;;;;;;;25.55;15.60;;;10.40;99.90;;;;;;4996026;28;20097;-76
2024/02/17 03:39:37;;;;;;;27.98;14.50;;;10.40;99.90;;;;;;4995900;28;20399;-76
2024/02/17 03:42:03;;;;;;;29.20;16.77;;;10.40;99.90;;;;;;4996928;28;20030;-76
2024/02/17 03:44:29;;;;;;;34.80;17.00;;;10.40;99.90;;;;;;5003732;28;20101;-76
2024/02/17 03:46:55;;;;;;;25.35;14.57;;;10.40;99.90;;;;;;4995738;28;20439;-76
2024/02/17 03:49:20;;;;;;;27.63;16.10;;;10.40;99.90;;;;;;4980129;28;20022;-75
2024/02/17 03:51:49;;;;;;;27.75;14.38;;;10.40;99.90;;;;;;5003298;28;20066;-76
2024/02/17 03:54:15;;;;;;;32.72;16.90;;;10.40;99.90;;;;;;4982938;28;20021;-76
2024/02/17 03:56:41;;;;;;;28.98;15.50;;;10.40;99.90;;;;;;4994826;28;20230;-75
2024/02/17 03:59:07;;;;;;;31.67;15.43;;;10.30;99.90;;;;;;5001085;28;20579;-76
2024/02/17 04:01:37;;;;;;;28.40;16.27;;;10.40;99.90;;;;;;4989465;28;20026;-76
2024/02/17 04:04:04;;;;;;;29.65;16.58;;;10.40;99.90;;;;;;5002653;28;20034;-76
2024/02/17 04:06:30;;;;;;;31.00;16.08;;;10.40;99.90;;;;;;4989206;28;20026;-76
2024/02/17 04:08:57;;;;;;;30.60;16.83;;;10.40;99.90;;;;;;5003134;28;20022;-76
2024/02/17 04:11:24;;;;;;;27.65;14.75;;;10.40;99.90;;;;;;4975657;28;20044;-75
2024/02/17 04:13:50;;;;;;;32.95;16.00;;;10.40;99.90;;;;;;4989140;28;20019;-76
2024/02/17 04:16:15;;;;;;;33.33;16.38;;;10.40;99.90;;;;;;4998193;28;20380;-77
2024/02/17 04:18:41;;;;;;;24.45;15.43;;;10.40;99.90;;;;;;4994830;28;20053;-76
2024/02/17 04:21:07;;;;;;;27.55;14.88;;;10.40;99.90;;;;;;5000906;28;20109;-76
2024/02/17 04:23:33;;;;;;;31.23;15.80;;;10.40;99.90;;;;;;5002928;28;20029;-76
2024/02/17 04:26:01;;;;;;;24.00;14.40;;;10.40;99.90;;;;;;4988573;28;20483;-75
2024/02/17 04:28:27;;;;;;;30.02;16.23;;;10.40;99.90;;;;;;4989289;28;20030;-76
2024/02/17 04:30:54;;;;;;;27.30;15.85;;;10.40;99.90;;;;;;4992281;28;20022;-76
2024/02/17 04:33:19;;;;;;;27.27;16.02;;;10.40;99.90;;;;;;4999122;28;20437;-76
2024/02/17 04:35:45;;;;;;;26.73;14.82;;;10.40;99.90;;;;;;5002341;28;20120;-76
2024/02/17 04:38:12;;;;;;;31.98;17.38;;;10.30;99.90;;;;;;4989102;28;20109;-77
2024/02/17 04:40:38;;;;;;;27.38;15.90;;;10.30;99.90;;;;;;4984865;28;20018;-76
2024/02/17 04:43:04;;;;;;;24.33;14.07;;;10.40;99.90;;;;;;4989421;28;20448;-76
2024/02/17 04:45:30;;;;;;;30.23;15.93;;;10.40;99.90;;;;;;4994886;28;20037;-76
2024/02/17 04:47:56;;;;;;;27.75;15.82;;;10.40;99.90;;;;;;5002662;28;20025;-76
2024/02/17 04:50:21;;;;;;;25.95;14.93;;;10.40;99.90;;;;;;4988296;28;20480;-76
2024/02/17 04:52:47;;;;;;;24.83;14.38;;;10.40;99.90;;;;;;5000836;28;20479;-76
2024/02/17 04:55:13;;;;;;;26.50;14.65;;;10.40;99.90;;;;;;4994231;28;20097;-76
2024/02/17 04:57:39;;;;;;;31.27;15.02;;;10.40;99.90;;;;;;4998442;28;20022;-76
2024/02/17 05:00:07;;;;;;;29.00;16.20;;;10.40;99.90;;;;;;4991020;28;20027;-76
2024/02/17 05:02:44;;;;;;;29.33;15.40;;;10.40;99.90;;;;;;4999187;28;20038;-76
2024/02/17 05:05:10;;;;;;;27.05;15.68;;;10.40;99.90;;;;;;4984260;28;20033;-76
2024/02/17 05:07:35;;;;;;;33.10;15.45;;;10.30;99.90;;;;;;4996310;28;20022;-76
2024/02/17 05:10:02;;;;;;;29.45;15.18;;;10.30;99.90;;;;;;4976373;28;20026;-77
2024/02/17 05:12:28;;;;;;;27.05;13.80;;;10.30;99.90;;;;;;5001555;28;20029;-77
2024/02/17 05:14:53;;;;;;;22.98;14.13;;;10.30;99.90;;;;;;5000380;28;20049;-76
2024/02/17 05:17:19;;;;;;;28.63;16.25;;;10.30;99.90;;;;;;4995420;28;20112;-76
2024/02/17 05:19:45;;;;;;;23.63;14.45;;;10.30;99.90;;;;;;4999116;28;20030;-76
2024/02/17 05:22:10;;;;;;;28.05;14.73;;;10.30;99.90;;;;;;4990112;28;20033;-76
2024/02/17 05:24:36;;;;;;;28.98;15.95;;;10.30;99.90;;;;;;4999680;28;20039;-76
2024/02/17 05:27:02;;;;;;;30.83;14.40;;;10.30;99.90;;;;;;4987891;28;20173;-76
2024/02/17 05:29:28;;;;;;;27.20;14.95;;;10.30;99.90;;;;;;5001530;28;20496;-76
2024/02/17 05:31:54;;;;;;;21.10;13.73;;;10.40;99.90;;;;;;4991704;28;20038;-76
2024/02/17 05:34:21;;;;;;;27.20;15.40;;;10.40;99.90;;;;;;5001588;28;20491;-76
2024/02/17 05:36:46;;;;;;;29.52;15.63;;;10.40;99.90;;;;;;4994840;28;20977;-76
2024/02/17 05:39:12;;;;;;;25.77;14.10;;;10.40;99.90;;;;;;4990749;28;20022;-76
2024/02/17 05:41:38;;;;;;;27.85;14.30;;;10.40;99.90;;;;;;4998640;28;20073;-75
2024/02/17 05:44:04;;;;;;;29.50;15.40;;;10.40;99.90;;;;;;5001205;28;20021;-75
2024/02/17 05:46:30;;;;;;;26.23;15.70;;;10.40;99.90;;;;;;4983147;28;21350;-75
2024/02/17 05:48:56;;;;;;;33.45;16.35;;;10.40;99.90;;;;;;4990043;28;20018;-76
2024/02/17 05:51:21;;;;;;;34.90;14.80;;;10.40;99.90;;;;;;4987660;28;20022;-76
2024/02/17 05:53:47;;;;;;;29.92;16.38;;;10.40;99.90;;;;;;4994352;28;20030;-76
2024/02/17 05:56:13;;;;;;;27.75;14.38;;;10.40;99.90;;;;;;4994373;28;20046;-74
2024/02/17 05:58:39;;;;;;;30.55;16.20;;;10.40;99.90;;;;;;5000407;28;20030;-76
2024/02/17 06:01:04;;;;;;;25.58;14.80;;;10.40;99.90;;;;;;4979889;28;20031;-75
2024/02/17 06:03:32;;;;;;;25.92;15.10;;;10.40;99.90;;;;;;4993417;28;20448;-75
2024/02/17 06:05:58;;;;;;;28.88;15.73;;;10.40;99.90;;;;;;4979920;28;20415;-74
2024/02/17 06:08:24;;;;;;;31.50;15.52;;;10.50;99.90;;;;;;5001050;28;20028;-74
2024/02/17 06:10:50;;;;;;;31.58;15.77;;;10.50;99.90;;;;;;4993685;28;20040;-76
2024/02/17 06:13:16;;;;;;;28.55;15.55;;;10.50;99.90;;;;;;4994355;28;20026;-75
2024/02/17 06:15:45;;;;;;;26.23;15.38;;;10.40;99.90;;;;;;5000615;28;20295;-75
2024/02/17 06:21:19;;;;;;;30.00;15.52;;;10.50;99.90;;;;;;4991910;28;20461;-76
2024/02/17 06:23:47;;;;;;;25.13;15.45;;;10.50;99.90;;;;;;4979811;28;20030;-76
2024/02/17 06:26:27;;;;;;;27.98;14.23;;;10.40;99.90;;;;;;5000958;28;20035;-77
2024/02/17 06:28:54;;;;;;;29.48;15.00;;;10.40;99.90;;;;;;5000439;28;20025;-77
2024/02/17 06:31:20;;;;;;;33.60;14.85;;;10.40;99.90;;;;;;4974472;28;20026;-76
2024/02/17 06:33:46;;;;;;;24.35;14.32;;;10.30;99.90;;;;;;4999807;28;20026;-76
2024/02/17 06:36:12;;;;;;;27.00;14.23;;;10.40;99.90;;;;;;4992524;28;20018;-76
2024/02/17 06:38:38;;;;;;;27.55;13.88;;;10.30;99.90;;;;;;5000682;28;20022;-77
2024/02/17 06:41:04;;;;;;;30.38;14.70;;;10.30;99.90;;;;;;4988378;28;20295;-77
2024/02/17 06:43:30;;;;;;;25.65;15.35;;;10.30;99.90;;;;;;4996895;28;20105;-77
2024/02/17 06:45:58;;;;;;;28.98;14.70;;;10.30;99.90;;;;;;5001812;28;20105;-76
2024/02/17 06:48:27;;;;;;;28.17;14.70;;;10.30;99.90;;;;;;4991111;28;20076;-77
2024/02/17 06:50:54;;;;;;;25.58;14.00;;;10.30;99.90;;;;;;4991909;28;20598;-77
2024/02/17 06:53:20;;;;;;;24.65;14.98;;;10.30;99.90;;;;;;4990506;28;20014;-77
2024/02/17 06:55:46;;;;;;;27.38;14.60;;;10.30;99.90;;;;;;4991311;28;20627;-77
2024/02/17 06:58:12;;;;;;;24.65;14.57;;;10.30;99.90;;;;;;4985918;28;20034;-76
2024/02/17 07:00:38;;;;;;;28.90;13.45;;;10.30;99.90;;;;;;4969589;28;20031;-77
2024/02/17 07:03:04;;;;;;;26.60;14.45;;;10.30;99.90;;;;;;4980080;28;20026;-76
2024/02/17 07:05:34;;;;;;;26.45;13.38;;;10.30;99.90;;;;;;4965289;28;20249;-77
2024/02/17 07:08:00;;;;;;;25.48;14.65;;;10.30;99.90;;;;;;4996942;28;20249;-77
2024/02/17 07:10:26;;;;;;;25.02;13.27;;;10.30;99.90;;;;;;4990112;28;20026;-77
2024/02/17 07:12:52;;;;;;;27.60;14.23;;;10.30;99.90;;;;;;4984266;28;20030;-77
2024/02/17 07:15:17;;;;;;;28.70;14.23;;;10.30;99.90;;;;;;5004261;28;20088;-76
2024/02/17 07:17:43;;;;;;;25.77;12.48;;;10.30;99.90;;;;;;4996995;28;20053;-77
2024/02/17 07:20:10;;;;;;;26.77;12.65;;;10.30;99.90;;;;;;5010237;28;20029;-77
2024/02/17 07:22:36;;;;;;;22.15;13.43;;;10.20;99.90;;;;;;4984886;28;20030;-77
2024/02/17 07:25:02;;;;;;;25.27;14.73;;;10.20;99.90;;;;;;4992910;28;20172;-78
2024/02/17 07:27:28;;;;;;;30.25;15.95;;;10.20;99.90;;;;;;4969776;28;20315;-77
2024/02/17 07:29:54;;;;;;;23.05;11.93;;;10.20;99.90;;;;;;4976563;28;20578;-77
2024/02/17 07:32:24;;;;;;;27.85;14.73;;;10.20;99.90;;;;;;4974031;28;20436;-77
2024/02/17 07:34:53;;;;;;;26.23;14.52;;;10.20;99.90;;;;;;5000819;28;20494;-77
2024/02/17 07:37:19;;;;;;;28.70;14.95;;;10.20;99.90;;;;;;4989530;28;20488;-78
2024/02/17 07:39:45;;;;;;;24.85;11.95;;;10.20;99.90;;;;;;5008170;28;20049;-76
2024/02/17 07:42:11;;;;;;;27.35;14.13;;;10.20;99.90;;;;;;4976440;28;20515;-75
2024/02/17 07:44:37;;;;;;;24.90;13.85;;;10.20;99.90;;;;;;4986073;28;20030;-76
2024/02/17 07:47:03;;;;;;;23.63;13.45;;;10.20;99.90;;;;;;4995129;28;20022;-76
2024/02/17 07:49:31;;;;;;;26.58;14.02;;;10.30;99.90;;;;;;4998340;28;20503;-77
2024/02/17 07:51:56;;;;;;;27.23;14.35;;;10.30;99.90;;;;;;5005045;28;20019;-77
2024/02/17 07:54:22;;;;;;;21.10;12.73;;;10.30;99.90;;;;;;4988640;28;20038;-77
2024/02/17 07:56:48;;;;;;;21.65;12.57;;;10.30;99.90;;;;;;4977099;28;20384;-77
2024/02/17 07:59:13;;;;;;;23.75;12.95;;;10.40;99.90;;;;;;4993862;28;20053;-77
2024/02/17 08:01:39;;;;;;;24.55;13.52;;;10.40;99.90;;;;;;4974217;28;20038;-77
2024/02/17 08:04:05;;;;;;;21.25;12.80;;;10.40;99.90;;;;;;4970827;28;20511;-76
2024/02/17 08:06:31;;;;;;;20.17;13.30;;;10.50;99.90;;;;;;5010957;28;20368;-77
2024/02/17 08:08:57;;;;;;;20.88;12.38;;;10.50;99.90;;;;;;4998316;28;20022;-74
2024/02/17 08:11:22;;;;;;;21.67;12.30;;;10.50;99.90;;;;;;4995362;28;20041;-76
2024/02/17 08:13:48;;;;;;;19.75;12.57;;;10.60;99.90;;;;;;4988614;28;20075;-76
2024/02/17 08:16:14;;;;;;;22.60;11.88;;;10.60;99.90;;;;;;4997738;28;20528;-78
2024/02/17 08:18:42;;;;;;;21.92;13.10;;;10.60;99.90;;;;;;5006628;28;20481;-76
2024/02/17 08:21:09;;;;;;;19.20;12.23;;;10.60;99.90;;;;;;4996577;28;20042;-77
2024/02/17 08:23:34;;;;;;;22.45;11.77;;;10.60;99.90;;;;;;4992541;28;20033;-77
2024/02/17 08:26:00;;;;;;;21.50;13.40;;;10.70;99.90;;;;;;4984011;28;20022;-77
2024/02/17 08:28:29;;;;;;;23.52;13.68;;;10.70;99.90;;;;;;4977838;28;20032;-78
2024/02/17 08:30:55;;;;;;;25.35;12.48;;;10.70;99.90;;;;;;5005226;28;20053;-77
2024/02/17 08:33:21;;;;;;;21.92;11.68;;;10.70;99.90;;;;;;4971590;28;20154;-76
2024/02/17 08:35:49;;;;;;;24.95;13.05;;;10.80;99.90;;;;;;4998074;28;20030;-76
2024/02/17 08:38:16;;;;;;;27.13;13.50;;;10.80;99.90;;;;;;4992375;28;20519;-77
2024/02/17 08:40:42;;;;;;;23.65;12.27;;;10.80;99.90;;;;;;4986960;28;20039;-77
2024/02/17 08:43:08;;;;;;;19.67;12.77;;;10.90;99.90;;;;;;4977641;28;20033;-77
2024/02/17 08:45:34;;;;;;;22.35;13.15;;;10.90;99.90;;;;;;4973964;28;20030;-77
2024/02/17 08:48:00;;;;;;;19.67;12.15;;;10.90;99.90;;;;;;4984284;28;20481;-78
2024/02/17 08:50:26;;;;;;;22.50;13.68;;;10.90;99.90;;;;;;4983340;28;20584;-77
2024/02/17 08:52:53;;;;;;;22.35;12.90;;;11.00;99.90;;;;;;4987837;28;20034;-77
2024/02/17 08:55:19;;;;;;;25.30;13.90;;;11.00;99.90;;;;;;4979076;28;20025;-77
2024/02/17 08:57:45;;;;;;;23.30;12.70;;;11.00;99.90;;;;;;4996902;28;20034;-77
2024/02/17 09:00:12;;;;;;;22.05;12.65;;;11.00;99.90;;;;;;4999393;28;20026;-77
2024/02/17 09:02:37;;;;;;;23.55;13.77;;;11.10;99.90;;;;;;4977639;28;20039;-77
2024/02/17 09:05:05;;;;;;;20.17;12.32;;;11.10;99.90;;;;;;4978072;28;20033;-77
2024/02/17 09:07:31;;;;;;;26.30;13.65;;;11.10;99.90;;;;;;4961342;28;20117;-77
2024/02/17 09:09:57;;;;;;;19.17;11.68;;;11.10;99.90;;;;;;4991523;28;20138;-77
2024/02/17 09:12:23;;;;;;;28.02;14.80;;;11.10;99.90;;;;;;4982139;28;20058;-77
2024/02/17 09:14:49;;;;;;;29.30;14.73;;;11.10;99.90;;;;;;4998598;28;20411;-77
2024/02/17 09:17:16;;;;;;;26.15;15.38;;;11.20;99.90;;;;;;4993432;28;20036;-77
2024/02/17 09:19:42;;;;;;;23.02;13.80;;;11.20;99.90;;;;;;4980209;28;20022;-77
2024/02/17 09:22:08;;;;;;;31.45;15.63;;;11.20;99.90;;;;;;4989592;28;20034;-77
2024/02/17 09:24:33;;;;;;;29.52;16.05;;;11.20;99.90;;;;;;4985082;28;20030;-77
2024/02/17 09:27:00;;;;;;;24.67;15.30;;;11.20;99.90;;;;;;4988500;28;20030;-77
2024/02/17 09:29:27;;;;;;;32.55;16.35;;;11.30;99.90;;;;;;4987254;28;20444;-78
2024/02/17 09:31:53;;;;;;;29.05;16.45;;;11.30;99.90;;;;;;4983668;28;20166;-78
2024/02/17 09:34:18;;;;;;;25.88;14.98;;;11.30;99.90;;;;;;4984523;28;20108;-78
2024/02/17 09:36:44;;;;;;;28.92;16.88;;;11.40;99.90;;;;;;4968786;28;20583;-79
2024/02/17 09:39:11;;;;;;;25.77;14.00;;;11.40;99.90;;;;;;4981781;28;20054;-77
2024/02/17 09:41:37;;;;;;;23.42;13.15;;;11.40;99.90;;;;;;4964685;28;20076;-77
2024/02/17 09:44:03;;;;;;;24.02;14.60;;;11.40;99.90;;;;;;4994182;28;20121;-77
2024/02/17 09:46:29;;;;;;;28.42;15.48;;;11.40;99.90;;;;;;4999062;28;20120;-77
2024/02/17 09:49:00;;;;;;;27.08;14.45;;;11.40;99.90;;;;;;4985596;28;20105;-77
2024/02/17 09:51:25;;;;;;;25.77;13.07;;;11.40;99.90;;;;;;4986057;28;20553;-78
2024/02/17 09:53:53;;;;;;;24.38;14.88;;;11.40;99.90;;;;;;4997982;28;20109;-78
2024/02/17 09:56:19;;;;;;;25.15;14.20;;;11.50;99.90;;;;;;5002097;28;20018;-77
2024/02/17 09:58:45;;;;;;;23.55;14.55;;;11.50;99.90;;;;;;4978095;28;20036;-78
2024/02/17 10:01:11;;;;;;;22.27;12.90;;;11.50;99.90;;;;;;4977944;28;20030;-77
2024/02/17 10:03:40;;;;;;;24.98;12.27;;;11.60;99.90;;;;;;4984062;28;20023;-77
2024/02/17 10:06:14;;;;;;;25.98;13.02;;;11.60;99.90;;;;;;4987639;28;20028;-77
2024/02/17 10:08:41;;;;;;;20.10;12.68;;;11.60;99.90;;;;;;4987050;28;20089;-77
2024/02/17 10:11:11;;;;;;;20.60;12.45;;;11.60;99.90;;;;;;4970094;28;20349;-77
2024/02/17 10:13:38;;;;;;;26.20;12.90;;;11.60;99.90;;;;;;4987090;28;20022;-77
2024/02/17 10:16:10;;;;;;;21.15;13.32;;;11.60;99.90;;;;;;4977365;28;20046;-77
2024/02/17 10:18:41;;;;;;;22.50;13.02;;;11.70;99.90;;;;;;4992876;28;20040;-77
2024/02/17 10:21:07;;;;;;;;;;;11.70;99.90;;;;;;5000120;28;20495;-77
2024/02/17 10:23:33;;;;;;;19.45;12.98;;;11.80;99.90;;;;;;5000068;28;19967;-76
2024/02/17 10:25:59;;;;;;;17.08;10.73;;;11.70;99.90;;;;;;4975098;28;20026;-77
2024/02/17 10:28:26;;;;;;;21.77;13.68;;;11.80;99.90;;;;;;4978310;28;20484;-77
2024/02/17 10:30:52;;;;;;;24.75;14.90;;;11.80;99.90;;;;;;4974065;28;20022;-77
2024/02/17 10:33:18;;;;;;;22.20;13.10;;;11.90;99.90;;;;;;4988248;28;20383;-77
2024/02/17 10:35:46;;;;;;;24.02;14.85;;;11.90;99.90;;;;;;4986715;28;20030;-77
2024/02/17 10:38:12;;;;;;;21.95;13.77;;;11.90;99.90;;;;;;4986496;28;20515;-77
2024/02/17 10:40:38;;;;;;;21.25;12.30;;;12.00;99.90;;;;;;4969287;28;20049;-77
2024/02/17 10:43:04;;;;;;;25.27;13.02;;;12.10;99.90;;;;;;4967999;28;20018;-77
2024/02/17 10:45:30;;;;;;;24.27;13.23;;;12.10;99.90;;;;;;4986593;28;20113;-76
2024/02/17 10:48:09;;;;;;;21.65;12.00;;;12.10;99.90;;;;;;4986050;28;20463;-77
2024/02/17 10:50:40;;;;;;;21.85;12.07;;;12.10;99.90;;;;;;4986716;28;20506;-77
2024/02/17 10:53:21;;;;;;;24.92;12.15;;;12.20;99.90;;;;;;4986300;28;20080;-77
2024/02/17 10:55:53;;;;;;;18.42;12.00;;;12.20;99.90;;;;;;4986524;28;20030;-77
2024/02/17 10:58:20;;;;;;;20.55;12.60;;;12.20;99.90;;;;;;4968662;28;20033;-77
2024/02/17 11:00:48;;;;;;;17.20;10.35;;;12.30;99.90;;;;;;4989677;28;20363;-77
2024/02/17 11:03:25;;;;;;;23.67;11.82;;;12.30;99.90;;;;;;4986780;28;20015;-78
2024/02/17 11:05:55;;;;;;;20.42;10.57;;;12.30;99.90;;;;;;4986371;28;20026;-77
2024/02/17 11:08:22;;;;;;;20.98;11.23;;;12.30;99.90;;;;;;5000138;28;20022;-77
2024/02/17 11:10:47;;;;;;;24.60;12.32;;;12.30;99.90;;;;;;4985930;28;20512;-77
2024/02/17 11:13:26;;;;;;;20.92;12.00;;;12.30;99.90;;;;;;4971899;28;20064;-76
2024/02/17 11:16:05;;;;;;;20.38;11.45;;;12.40;99.90;;;;;;4979169;28;20057;-77
2024/02/17 11:18:39;;;;;;;18.80;10.10;;;12.40;99.90;;;;;;4991774;28;20050;-78
2024/02/17 11:21:10;;;;;;;17.95;11.02;;;12.40;99.90;;;;;;5004573;28;20026;-77
2024/02/17 11:23:40;;;;;;;19.45;12.15;;;12.40;99.90;;;;;;4992354;28;20064;-77
2024/02/17 11:26:15;;;;;;;21.13;12.30;;;12.40;99.90;;;;;;4979673;28;20486;-77
2024/02/17 11:28:46;;;;;;;20.75;11.48;;;12.40;99.90;;;;;;4991687;28;20026;-77
2024/02/17 11:31:16;;;;;;;20.83;11.40;;;12.40;99.90;;;;;;4975267;28;20026;-77
2024/02/17 11:33:43;;;;;;;20.98;13.05;;;12.40;99.90;;;;;;4994669;28;20025;-77
2024/02/17 11:36:13;;;;;;;24.38;13.43;;;12.40;99.90;;;;;;5004547;28;20030;-77
2024/02/17 11:38:39;;;;;;;21.00;11.55;;;12.40;99.90;;;;;;4990157;28;20029;-77
2024/02/17 11:41:05;;;;;;;22.52;11.27;;;12.40;99.90;;;;;;4990247;28;20022;-77
2024/02/17 11:43:33;;;;;;;21.23;11.18;;;12.40;99.90;;;;;;4990993;28;20030;-76
2024/02/17 11:45:59;;;;;;;18.48;12.05;;;12.40;99.90;;;;;;4981082;28;20133;-76
2024/02/17 11:48:30;;;;;;;16.02;10.90;;;12.30;99.90;;;;;;4992605;28;20022;-76
2024/02/17 11:51:22;;;;;;;17.80;11.15;;;12.40;99.90;;;;;;4972003;28;20035;-79
2024/02/17 11:53:50;;;;;;;18.83;12.43;;;12.30;99.90;;;;;;4980356;28;20022;-78
2024/02/17 11:56:18;;;;;;;20.58;11.68;;;12.40;99.90;;;;;;4993025;28;20038;-78
2024/02/17 11:58:45;;;;;;;20.02;11.75;;;12.40;99.90;;;;;;4960115;28;20070;-78
2024/02/17 12:01:14;;;;;;;19.73;10.38;;;12.30;99.90;;;;;;4989038;28;20042;-78
2024/02/17 12:03:42;;;;;;;20.10;11.40;;;12.30;99.90;;;;;;4983666;28;20035;-78
2024/02/17 12:06:09;;;;;;;16.33;10.63;;;12.30;99.90;;;;;;4965497;28;20042;-78
2024/02/17 12:08:36;;;;;;;17.60;10.68;;;12.20;99.90;;;;;;4972215;28;20028;-78
2024/02/17 12:11:02;;;;;;;20.30;11.10;;;12.20;99.90;;;;;;4983143;28;20320;-78
2024/02/17 12:13:29;;;;;;;19.70;11.55;;;12.10;99.90;;;;;;4969594;28;20453;-78
2024/02/17 12:16:07;;;;;;;19.67;11.13;;;12.10;99.90;;;;;;4978405;28;20057;-79
2024/02/17 12:18:36;;;;;;;20.85;12.07;;;12.00;99.90;;;;;;4982728;28;20034;-77
2024/02/17 12:21:06;;;;;;;19.70;11.68;;;12.00;99.90;;;;;;4981791;28;20265;-78
2024/02/17 12:23:35;;;;;;;20.67;10.60;;;12.00;99.90;;;;;;4973476;28;20041;-78
2024/02/17 12:26:05;;;;;;;21.63;10.88;;;12.10;99.90;;;;;;4987891;28;20026;-77
2024/02/17 12:28:32;;;;;;;21.55;11.50;;;12.10;99.90;;;;;;4972092;28;20019;-77